createdAt,value
2023-02-02T00:01:58.818Z,1.85
2023-02-02T00:05:03.290Z,1.70
2023-02-02T00:08:07.799Z,1.52
2023-02-02T00:11:12.428Z,1.23
2023-02-02T00:14:18.177Z,2.10
2023-02-02T00:17:22.705Z,2.22
2023-02-02T00:20:27.245Z,1.67
2023-02-02T00:23:31.738Z,1.77
2023-02-02T00:26:37.680Z,1.60
2023-02-02T00:29:42.201Z,2.80
2023-02-02T00:32:48.443Z,2.35
2023-02-02T00:35:53.605Z,1.92
2023-02-02T00:38:58.174Z,1.88
2023-02-02T00:42:02.741Z,1.80
2023-02-02T00:45:16.476Z,2.03
2023-02-02T00:48:21.042Z,1.50
2023-02-02T00:51:25.552Z,1.40
2023-02-02T00:54:30.291Z,1.52
2023-02-02T00:57:34.860Z,1.90
2023-02-02T01:00:39.785Z,1.83
2023-02-02T01:03:45.694Z,2.45
2023-02-02T01:06:50.223Z,1.42
2023-02-02T01:09:54.799Z,1.90
2023-02-02T01:12:59.371Z,1.73
2023-02-02T01:16:04.743Z,1.58
2023-02-02T01:19:09.255Z,1.30
2023-02-02T01:22:13.841Z,1.45
2023-02-02T01:25:18.508Z,1.48
2023-02-02T01:28:24.025Z,1.70
2023-02-02T01:31:28.494Z,1.90
2023-02-02T01:34:34.648Z,2.13
2023-02-02T01:37:39.176Z,1.60
2023-02-02T01:40:49.218Z,1.30
2023-02-02T01:43:57.177Z,2.05
2023-02-02T01:47:01.644Z,1.90
2023-02-02T01:50:12.007Z,1.40
2023-02-02T01:53:19.813Z,0.70
2023-02-02T01:56:29.053Z,0.60
2023-02-02T01:59:35.072Z,0.50
2023-02-02T02:02:41.708Z,0.47
2023-02-02T02:06:08.709Z,0.20
2023-02-02T02:09:14.488Z,0.47
2023-02-02T02:12:19.032Z,0.40
2023-02-02T02:15:42.366Z,0.40
2023-02-02T02:19:22.867Z,0.30
2023-02-02T02:23:03.308Z,0.30
2023-02-02T02:26:36.137Z,0.30
2023-02-02T02:29:55.448Z,0.20
2023-02-02T02:33:31.699Z,0.20
2023-02-02T02:36:49.826Z,0.20
2023-02-02T02:39:58.200Z,0.20
2023-02-02T02:43:09.915Z,0.30
2023-02-02T02:46:14.884Z,0.20
2023-02-02T02:49:19.559Z,0.20
2023-02-02T02:52:24.185Z,0.20
2023-02-02T02:55:41.598Z,0.20
2023-02-02T02:58:54.260Z,0.20
2023-02-02T03:05:41.098Z,1.58
2023-02-02T03:08:51.610Z,1.58
2023-02-02T03:11:56.314Z,1.35
2023-02-02T03:15:05.533Z,0.82
2023-02-02T03:18:12.726Z,0.40
2023-02-02T03:21:17.323Z,0.68
2023-02-02T03:24:24.847Z,0.70
2023-02-02T03:27:29.444Z,0.80
2023-02-02T03:30:34.693Z,0.68
2023-02-02T03:33:39.481Z,1.35
2023-02-02T03:36:43.969Z,0.80
2023-02-02T03:39:48.531Z,0.82
2023-02-02T03:42:53.077Z,1.80
2023-02-02T03:46:00.196Z,2.00
2023-02-02T03:49:04.700Z,0.85
2023-02-02T03:52:09.237Z,0.20
2023-02-02T03:55:13.741Z,0.50
2023-02-02T03:58:22.153Z,0.30
2023-02-02T04:01:30.482Z,0.55
2023-02-02T04:04:35.024Z,0.40
2023-02-02T04:07:40.033Z,0.30
2023-02-02T04:10:44.508Z,0.30
2023-02-02T04:13:50.802Z,0.52
2023-02-02T04:16:55.320Z,0.35
2023-02-02T04:19:59.912Z,0.40
2023-02-02T04:23:04.584Z,0.30
2023-02-02T04:26:09.322Z,0.77
2023-02-02T04:29:13.867Z,1.50
2023-02-02T04:32:19.019Z,0.52
2023-02-02T04:35:23.867Z,0.30
2023-02-02T04:38:28.682Z,0.20
2023-02-02T04:41:34.578Z,0.20
2023-02-02T04:44:39.765Z,0.20
2023-02-02T04:47:44.230Z,0.20
2023-02-02T04:50:48.728Z,0.20
2023-02-02T04:53:53.296Z,0.30
2023-02-02T04:56:58.013Z,0.60
2023-02-02T05:00:03.050Z,0.25
2023-02-02T05:03:07.617Z,0.45
2023-02-02T05:06:15.553Z,0.20
2023-02-02T05:09:20.414Z,0.35
2023-02-02T05:12:24.944Z,0.20
2023-02-02T05:15:29.504Z,0.30
2023-02-02T05:18:34.013Z,0.35
2023-02-02T05:21:38.674Z,0.20
2023-02-02T05:24:44.693Z,0.20
2023-02-02T05:27:49.224Z,0.40
2023-02-02T05:30:53.891Z,0.30
2023-02-02T05:33:58.821Z,0.32
2023-02-02T05:37:03.481Z,0.30
2023-02-02T05:40:08.816Z,0.43
2023-02-02T05:43:13.300Z,0.55
2023-02-02T05:46:17.835Z,0.80
2023-02-02T05:49:22.380Z,0.50
2023-02-02T05:52:35.115Z,0.50
2023-02-02T05:55:39.674Z,0.40
2023-02-02T05:58:47.141Z,0.50
2023-02-02T06:01:51.643Z,0.47
2023-02-02T06:04:56.181Z,0.40
2023-02-02T06:08:00.740Z,0.50
2023-02-02T06:11:13.724Z,0.50
2023-02-02T06:17:22.554Z,0.60
2023-02-02T06:20:27.365Z,0.40
2023-02-02T06:23:33.956Z,0.40
2023-02-02T06:26:38.651Z,0.40
2023-02-02T06:29:43.212Z,0.40
2023-02-02T06:32:47.726Z,0.38
2023-02-02T06:35:53.856Z,0.50
2023-02-02T06:38:58.421Z,0.63
2023-02-02T06:42:19.228Z,0.57
2023-02-02T06:45:26.663Z,0.70
2023-02-02T06:48:31.357Z,0.60
2023-02-02T06:51:37.661Z,0.73
2023-02-02T06:54:42.253Z,0.70
2023-02-02T06:57:47.062Z,0.90
2023-02-02T07:00:51.682Z,0.90
2023-02-02T07:03:57.590Z,0.60
2023-02-02T07:07:02.118Z,0.63
2023-02-02T07:10:07.020Z,0.70
2023-02-02T07:13:11.595Z,0.70
2023-02-02T07:16:17.730Z,0.73
2023-02-02T07:19:22.274Z,0.50
2023-02-02T07:22:26.719Z,0.65
2023-02-02T07:25:31.728Z,2.33
2023-02-02T07:28:36.526Z,0.55
2023-02-02T07:31:41.397Z,0.60
2023-02-02T07:34:46.077Z,0.63
2023-02-02T07:37:56.592Z,0.75
2023-02-02T07:41:01.615Z,0.70
2023-02-02T07:44:07.401Z,0.90
2023-02-02T07:47:11.946Z,0.77
2023-02-02T07:50:16.826Z,0.60
2023-02-02T07:53:23.342Z,1.75
2023-02-02T07:56:28.321Z,1.67
2023-02-02T07:59:32.824Z,1.30
2023-02-02T08:02:37.381Z,2.00
2023-02-02T08:05:41.968Z,5.07
2023-02-02T08:08:47.880Z,3.47
2023-02-02T08:11:52.471Z,3.75
2023-02-02T08:14:58.553Z,1.30
2023-02-02T08:18:03.284Z,7.22
2023-02-02T08:21:09.497Z,10.48
2023-02-02T08:24:14.028Z,17.90
2023-02-02T08:27:18.605Z,2.83
2023-02-02T08:30:23.148Z,6.07
2023-02-02T08:33:27.633Z,8.43
2023-02-02T08:36:35.317Z,2.63
2023-02-02T08:39:39.820Z,3.35
2023-02-02T08:42:46.194Z,6.88
2023-02-02T08:46:02.882Z,3.80
2023-02-02T08:49:11.164Z,21.13
2023-02-02T08:52:15.814Z,2.45
2023-02-02T08:55:20.318Z,6.00
2023-02-02T08:58:24.978Z,0.80
2023-02-02T09:01:31.650Z,6.35
2023-02-02T09:04:36.185Z,3.13
2023-02-02T09:07:40.825Z,1.48
2023-02-02T09:10:45.334Z,0.60
2023-02-02T09:13:54.854Z,0.60
2023-02-02T09:16:59.450Z,0.50
2023-02-02T09:20:04.714Z,0.43
2023-02-02T09:23:09.980Z,0.40
2023-02-02T09:26:28.915Z,0.55
2023-02-02T09:29:33.459Z,0.60
2023-02-02T09:32:38.066Z,0.52
2023-02-02T09:35:42.549Z,0.50
2023-02-02T09:38:47.503Z,0.47
2023-02-02T09:42:13.953Z,0.70
2023-02-02T09:45:41.888Z,0.70
2023-02-02T09:48:51.593Z,0.57
2023-02-02T09:51:56.802Z,0.65
2023-02-02T09:55:15.929Z,0.52
2023-02-02T09:58:22.079Z,0.50
2023-02-02T10:01:38.866Z,0.43
2023-02-02T10:04:48.979Z,0.63
2023-02-02T10:07:59.857Z,1.00
2023-02-02T10:11:33.250Z,1.20
2023-02-02T10:14:58.048Z,1.17
2023-02-02T10:18:20.757Z,1.08
2023-02-02T10:21:44.667Z,1.13
2023-02-02T10:24:49.267Z,1.13
2023-02-02T10:28:09.932Z,1.35
2023-02-02T10:31:49.807Z,0.90
2023-02-02T10:35:14.551Z,0.77
2023-02-02T10:38:20.572Z,3.00
2023-02-02T10:41:41.260Z,0.70
2023-02-02T10:45:00.309Z,0.60
2023-02-02T10:48:14.119Z,0.47
2023-02-02T10:51:24.017Z,0.38
2023-02-02T10:54:55.829Z,0.50
2023-02-02T10:58:02.781Z,0.40
2023-02-02T11:01:11.371Z,1.23
2023-02-02T11:04:36.304Z,2.75
2023-02-02T11:07:40.764Z,0.50
2023-02-02T11:10:46.788Z,0.30
2023-02-02T11:14:15.908Z,0.40
2023-02-02T11:17:25.248Z,0.40
2023-02-02T11:20:35.409Z,0.40
2023-02-02T11:23:41.588Z,0.32
2023-02-02T11:27:01.894Z,0.35
2023-02-02T11:30:27.713Z,0.57
2023-02-02T11:33:34.509Z,0.50
2023-02-02T11:36:39.032Z,0.35
2023-02-02T11:39:44.764Z,0.50
2023-02-02T11:42:51.598Z,0.50
2023-02-02T11:46:03.646Z,0.50
2023-02-02T11:49:18.836Z,0.60
2023-02-02T11:52:25.808Z,0.50
2023-02-02T11:55:32.497Z,0.50
2023-02-02T11:58:51.262Z,0.40
2023-02-02T12:02:14.086Z,0.50
2023-02-02T12:05:21.693Z,0.50
2023-02-02T12:08:26.315Z,0.57
2023-02-02T12:12:07.975Z,0.30
2023-02-02T12:15:34.075Z,0.60
2023-02-02T12:18:57.211Z,0.47
2023-02-02T12:25:29.882Z,0.50
2023-02-02T12:28:45.775Z,0.40
2023-02-02T12:32:11.846Z,0.60
2023-02-02T12:35:31.619Z,0.60
2023-02-02T12:39:08.557Z,0.70
2023-02-02T12:42:34.826Z,0.98
2023-02-02T12:46:29.845Z,0.70
2023-02-02T12:49:35.694Z,0.50
2023-02-02T12:53:01.813Z,0.85
2023-02-02T12:56:33.348Z,0.60
2023-02-02T13:00:26.920Z,0.70
2023-02-02T13:03:38.315Z,0.70
2023-02-02T13:06:57.210Z,0.75
2023-02-02T13:10:17.322Z,1.73
2023-02-02T13:13:23.645Z,3.72
2023-02-02T13:16:31.106Z,1.20
2023-02-02T13:19:40.189Z,1.20
2023-02-02T13:22:48.287Z,1.75
2023-02-02T13:26:00.098Z,8.50
2023-02-02T13:29:19.021Z,10.35
2023-02-02T13:32:29.391Z,1.50
2023-02-02T13:35:45.475Z,2.00
2023-02-02T13:38:50.640Z,2.85
2023-02-02T13:41:55.992Z,1.55
2023-02-02T13:45:13.609Z,8.45
2023-02-02T13:48:41.285Z,1.38
2023-02-02T13:52:11.575Z,0.80
2023-02-02T13:55:27.479Z,0.73
2023-02-02T13:58:53.826Z,0.90
2023-02-02T14:01:59.236Z,1.00
2023-02-02T14:05:06.565Z,2.63
2023-02-02T14:08:25.197Z,1.10
2023-02-02T14:11:42.385Z,1.13
2023-02-02T14:14:47.142Z,1.52
2023-02-02T14:17:54.088Z,3.50
2023-02-02T14:20:58.701Z,3.05
2023-02-02T14:24:21.928Z,3.83
2023-02-02T14:30:38.429Z,0.90
2023-02-02T14:33:47.522Z,1.30
2023-02-02T14:37:28.433Z,1.27
2023-02-02T14:40:50.897Z,1.08
2023-02-02T14:43:56.282Z,1.23
2023-02-02T14:47:00.855Z,0.63
2023-02-02T14:50:13.950Z,0.60
2023-02-02T14:53:28.944Z,0.60
2023-02-02T14:56:54.332Z,0.73
2023-02-02T15:00:01.352Z,0.60
2023-02-02T15:03:46.369Z,0.73
2023-02-02T15:06:55.725Z,0.80
2023-02-02T15:10:01.558Z,0.98
2023-02-02T15:13:12.206Z,1.00
2023-02-02T15:16:25.357Z,0.85
2023-02-02T15:19:40.715Z,0.90
2023-02-02T15:22:47.882Z,0.82
2023-02-02T15:26:17.454Z,1.00
2023-02-02T15:29:48.356Z,1.25
2023-02-02T15:32:53.581Z,1.25
2023-02-02T15:36:03.566Z,1.30
2023-02-02T15:39:23.623Z,1.67
2023-02-02T15:42:54.543Z,1.58
2023-02-02T15:46:06.696Z,1.98
2023-02-02T15:49:35.352Z,2.00
2023-02-02T15:52:46.930Z,2.33
2023-02-02T15:55:52.596Z,3.00
2023-02-02T15:58:59.420Z,1.90
2023-02-02T16:02:06.874Z,2.25
2023-02-02T16:05:25.248Z,1.75
2023-02-02T16:08:34.237Z,2.13
2023-02-02T16:11:42.201Z,2.25
2023-02-02T16:14:50.297Z,2.95
2023-02-02T16:18:00.049Z,1.70
2023-02-02T16:21:14.642Z,2.05
2023-02-02T16:24:23.781Z,2.40
2023-02-02T16:27:30.300Z,2.05
2023-02-02T16:30:38.060Z,1.42
2023-02-02T16:33:44.776Z,1.48
2023-02-02T16:37:27.755Z,1.50
2023-02-02T16:40:32.358Z,1.50
2023-02-02T16:43:38.531Z,1.55
2023-02-02T16:46:49.759Z,1.80
2023-02-02T16:50:09.815Z,1.80
2023-02-02T16:53:25.175Z,1.65
2023-02-02T16:56:41.842Z,1.63
2023-02-02T16:59:52.115Z,1.95
2023-02-02T17:03:01.940Z,2.13
2023-02-02T17:06:06.919Z,2.55
2023-02-02T17:09:28.550Z,2.80
2023-02-02T17:12:34.944Z,3.33
2023-02-02T17:15:40.075Z,4.07
2023-02-02T17:18:44.739Z,4.07
2023-02-02T17:21:50.849Z,4.68
2023-02-02T17:24:55.382Z,5.03
2023-02-02T17:28:00.628Z,4.32
2023-02-02T17:31:10.700Z,5.10
2023-02-02T17:34:15.534Z,15.27
2023-02-02T17:37:20.093Z,18.98
2023-02-02T17:40:24.930Z,21.45
2023-02-02T17:43:31.097Z,34.60
2023-02-02T17:46:38.337Z,5.13
2023-02-02T17:49:44.293Z,5.72
2023-02-02T17:52:50.155Z,6.55
2023-02-02T17:55:54.639Z,5.43
2023-02-02T17:58:59.129Z,2.70
2023-02-02T18:02:04.010Z,2.50
2023-02-02T18:05:09.007Z,3.03
2023-02-02T18:08:14.257Z,2.05
2023-02-02T18:11:18.924Z,1.95
2023-02-02T18:14:23.410Z,2.30
2023-02-02T18:17:28.324Z,2.78
2023-02-02T18:20:32.920Z,2.42
2023-02-02T18:23:37.687Z,1.65
2023-02-02T18:26:43.574Z,2.25
2023-02-02T18:29:48.544Z,2.30
2023-02-02T18:32:53.106Z,1.85
2023-02-02T18:35:57.596Z,2.45
2023-02-02T18:39:03.891Z,2.47
2023-02-02T18:42:08.449Z,2.38
2023-02-02T18:45:13.212Z,2.25
2023-02-02T18:48:19.724Z,2.47
2023-02-02T18:51:24.238Z,2.22
2023-02-02T18:54:29.054Z,2.15
2023-02-02T18:57:33.626Z,3.53
2023-02-02T19:00:38.165Z,2.42
2023-02-02T19:03:47.134Z,1.90
2023-02-02T19:07:14.527Z,2.00
2023-02-02T19:10:19.539Z,1.83
2023-02-02T19:13:24.097Z,2.20
2023-02-02T19:16:32.858Z,3.13
2023-02-02T19:19:40.526Z,2.47
2023-02-02T19:22:45.262Z,2.28
2023-02-02T19:25:53.937Z,2.42
2023-02-02T19:29:05.589Z,3.13
2023-02-02T19:32:10.538Z,3.15
2023-02-02T19:35:24.334Z,3.40
2023-02-02T19:38:29.674Z,3.28
2023-02-02T19:41:36.233Z,3.10
2023-02-02T19:44:42.622Z,3.13
2023-02-02T19:47:47.381Z,3.50
2023-02-02T19:50:53.712Z,3.40
2023-02-02T19:54:01.164Z,3.30
2023-02-02T19:57:11.273Z,2.65
2023-02-02T20:00:29.935Z,3.08
2023-02-02T20:03:43.074Z,4.03
2023-02-02T20:10:04.546Z,3.53
2023-02-02T20:13:44.081Z,3.75
2023-02-02T20:16:56.838Z,4.05
2023-02-02T20:20:01.498Z,3.85
2023-02-02T20:23:23.150Z,3.63
2023-02-02T20:26:35.670Z,4.60
2023-02-02T20:29:42.240Z,3.60
2023-02-02T20:32:51.109Z,2.88
2023-02-02T20:35:56.212Z,4.97
2023-02-02T20:39:26.331Z,4.13
2023-02-02T20:42:30.856Z,3.35
2023-02-02T20:45:35.451Z,3.53
2023-02-02T20:48:40.005Z,4.03
2023-02-02T20:51:44.547Z,6.95
2023-02-02T20:54:50.169Z,4.35
2023-02-02T20:57:56.615Z,8.20
2023-02-02T21:01:05.215Z,3.90
2023-02-02T21:04:10.083Z,4.97
2023-02-02T21:07:16.887Z,4.30
2023-02-02T21:10:23.270Z,5.72
2023-02-02T21:13:29.772Z,5.07
2023-02-02T21:16:34.321Z,3.95
2023-02-02T21:19:39.040Z,4.18
2023-02-02T21:22:43.532Z,7.93
2023-02-02T21:25:48.443Z,7.57
2023-02-02T21:28:53.304Z,9.52
2023-02-02T21:32:00.627Z,12.70
2023-02-02T21:35:06.317Z,4.90
2023-02-02T21:38:15.130Z,29.38
2023-02-02T21:41:20.212Z,15.40
2023-02-02T21:44:26.355Z,11.80
2023-02-02T21:47:30.825Z,6.88
2023-02-02T21:50:40.033Z,5.15
2023-02-02T21:53:45.749Z,5.22
2023-02-02T21:56:51.041Z,5.22
2023-02-02T21:59:56.881Z,4.05
2023-02-02T22:03:01.584Z,5.32
2023-02-02T22:06:28.163Z,5.88
2023-02-02T22:09:41.103Z,4.07
2023-02-02T22:15:51.736Z,3.28
2023-02-02T22:18:56.368Z,3.63
2023-02-02T22:22:21.777Z,4.97
2023-02-02T22:25:37.156Z,3.78
2023-02-02T22:28:41.644Z,6.05
2023-02-02T22:31:46.174Z,3.15
2023-02-02T22:34:51.113Z,3.40
2023-02-02T22:37:55.901Z,6.78
2023-02-02T22:41:00.403Z,4.65
2023-02-02T22:44:05.900Z,12.27
2023-02-02T22:47:10.880Z,3.58
2023-02-02T22:50:17.627Z,4.05
2023-02-02T22:53:22.316Z,9.45
2023-02-02T22:56:26.955Z,17.88
2023-02-02T22:59:31.404Z,4.85
2023-02-02T23:02:36.126Z,5.25
2023-02-02T23:05:40.713Z,4.45
2023-02-02T23:08:45.959Z,5.70
2023-02-02T23:11:50.487Z,4.60
2023-02-02T23:14:55.037Z,4.93
2023-02-02T23:17:59.773Z,24.25
2023-02-02T23:21:04.481Z,10.23
2023-02-02T23:24:09.090Z,5.05
2023-02-02T23:27:13.607Z,5.30
2023-02-02T23:30:22.274Z,6.90
2023-02-02T23:33:27.052Z,7.78
2023-02-02T23:36:31.580Z,15.98
2023-02-02T23:39:36.138Z,12.07
2023-02-02T23:42:43.763Z,9.07
2023-02-02T23:45:49.603Z,16.08
2023-02-02T23:48:54.641Z,6.80
2023-02-02T23:51:59.388Z,6.70
2023-02-02T23:55:05.030Z,8.10
2023-02-02T23:58:10.387Z,4.68
